x

9441102 - Westport, Wa (wptw1) Weather Station

1:36 - Thu 27th Aug 2015 All times are PDT. -7 hours from GMT.

  • Wind
    8mph, 11mph gusts
  • Sea Temp 57°f
  • Luft Temp 55°f
  • Sea Pressure 1018.3mb
  • 9441102 - Westport, Wa
  • 9441102 - Westport, Wa

More Historic Weather Station data

Upgrade to MSW Pro to gain access to the past 30 days of data for over 8000 Wavebouys and Weather Stations around the globe.

Join Pro

Comparision Forecast

View Surf forecast
   
Do 08/27 1:36 8 11 mph 1018.3mb 57f 55f
1:30 9 11 mph 1018.4mb 56f 55f
1:24 9 10 mph 1018.4mb 56f 55f
1:18 9 10 mph 1018.4mb 56f 55f
1:12 7 9 mph 1018.3mb 56f 56f
1:06 8 9 mph 1018.3mb 56f 56f
1:00 7 8 mph 1018.3mb 56f 56f
12:36 8 9 mph 1018.5mb - 56f
12:30 7 8 mph 1018.5mb - 57f
12:24 6
mph
1018.5mb - 57f
12:18 5
mph
1018.5mb - 57f
12:12 3 5 mph 1018.5mb - 60f
12:06 3 6 mph 1018.5mb - 61f
12:00 3 5 mph 1018.6mb - -
11:36 3 5 mph 1018.9mb 57f 61f
11:30 3 5 mph 1018.8mb 57f 61f
11:24 3 5 mph 1018.9mb 57f 62f
11:18 3 5 mph 1018.9mb 57f 61f
11:12 3 5 mph 1018.8mb 58f 60f
11:06 5
mph
1018.8mb 58f 60f
11:00 3 5 mph 1018.8mb 58f 60f
10:36 3 6 mph 1019mb 58f 57f
10:30 3 6 mph 1018.9mb 57f 57f
10:24 3 6 mph 1019mb 57f 57f
10:18 2 6 mph 1018.8mb 57f 57f
10:12 3 6 mph 1018.9mb 57f 57f
10:06 5 6 mph 1018.9mb 58f 57f
10:00 5 6 mph 1018.9mb 58f 56f
9:36  -  mph - - 56f
9:30  -  mph - - 56f
9:24  -  mph - - 56f
9:18  -  mph - - 56f
9:12  -  mph - - 56f
9:06  -  mph - - 56f
9:00  -  mph - - 56f
8:36 5 7 mph 1018.9mb 58f 56f
8:30 3 5 mph 1018.9mb 58f 56f
8:24 5
mph
1019mb 57f 56f
8:18 5 6 mph 1018.9mb 57f 56f
8:12 5 7 mph 1018.9mb 57f 56f
8:06 6 7 mph 1019mb 57f 56f
8:00 3 7 mph 1019mb 57f 56f
4:36 7 9 mph 1018.5mb 57f 56f
4:30 6 9 mph 1018.4mb 57f 56f
4:24 6 9 mph 1018.4mb 57f 56f
4:18 7 8 mph 1018.3mb 57f 56f
4:12 7 8 mph 1018.3mb 57f 56f
4:06  -  mph 1018.3mb 57f -
4:00 7 8 mph 1018.3mb 57f 57f
Mi 08/26 10:36  -  mph - 55f 57f
10:30  -  mph - 55f 57f
10:24  -  mph - 55f 57f
10:18  -  mph - 56f 58f
10:12  -  mph - 56f 57f
10:06  -  mph - 56f 58f
10:00  -  mph - 56f 58f
9:36 6 8 mph 1016.9mb 57f 57f
9:30 6 8 mph 1017mb 58f 57f
9:24 7 9 mph 1017.1mb 58f 57f
9:18 8 9 mph 1017.1mb 57f 57f
9:12 8 9 mph 1017mb 57f 57f
9:06 8 10 mph 1017mb 57f 56f
9:00 7 9 mph 1016.9mb 57f 56f
8:36 6 7 mph 1016.7mb 57f 55f
8:30 3 6 mph 1016.7mb 58f 55f
8:24 5 7 mph 1016.6mb 58f 55f
8:18 5 6 mph 1016.4mb 58f 55f
8:12 3 6 mph 1016.3mb 58f 56f
8:06 3 8 mph 1016.2mb 58f 56f
8:00 7 9 mph 1016.1mb 58f 56f
7:36 9 11 mph 1015.9mb 58f 58f
7:30 9 11 mph 1015.9mb 58f 58f
7:24 9 11 mph 1015.8mb 58f 58f
7:18 9 11 mph 1015.7mb 58f 58f
7:12 11 13 mph 1015.8mb 58f 59f
7:06 10 13 mph 1015.8mb 58f 59f
7:00 11 13 mph 1015.8mb 58f 60f
6:36 14 15 mph 1015.7mb 58f 62f
6:30 13 16 mph 1015.6mb 58f 62f
6:24 14 15 mph 1015.5mb 58f 62f
6:18 15 17 mph 1015.5mb 58f 62f
6:12 15 17 mph 1015.5mb 58f 62f
6:06 16 17 mph 1015.4mb 58f 62f
6:00 14
mph
1015.3mb 58f 62f
5:36 17 18 mph 1015.2mb 58f 62f
5:30 17 18 mph 1015.2mb 58f 62f
5:24 18 20 mph 1015.2mb 58f 62f
5:18 20 21 mph 1015.2mb 58f 63f
5:12 20 21 mph 1015.2mb 59f 63f
5:06 18 20 mph 1015.3mb 59f 64f
5:00 18
mph
1015.3mb 59f 64f
4:36 16 17 mph 1015.2mb 60f 66f
4:30 16 17 mph 1015.2mb 60f 66f
4:24 16 17 mph 1015.2mb 60f 65f
4:18 16 17 mph 1015.2mb 60f 65f
4:12 16 17 mph 1015.3mb 60f 65f
4:06 16
mph
1015.3mb 60f 64f
4:00 15 16 mph 1015.3mb 60f 64f
3:36 15 16 mph 1015.3mb 59f 65f
3:30 15 18 mph 1015.3mb 59f 65f
3:24 17
mph
1015.2mb 59f 66f
3:18 15 16 mph 1015.3mb 59f 65f
3:12 16 17 mph 1015.3mb 59f 65f
3:06 16
mph
1015.2mb 59f 65f
3:00 15 16 mph 1015.3mb 59f 65f
2:54 15
mph
1015.3mb 59f 65f
2:48 15
mph
1015.4mb 58f 66f
2:36 14
mph
1015.4mb 58f 66f
2:30 13 14 mph 1015.4mb 58f 66f
2:24 13 14 mph 1015.4mb 58f 66f
2:18 10 13 mph 1015.4mb 58f 67f
2:12 11 13 mph 1015.4mb 57f 67f
2:06 11 13 mph 1015.4mb 57f 68f
2:00 13 14 mph 1015.5mb 57f 67f
1:54 13 14 mph 1015.5mb 56f 67f
1:48 10 11 mph 1015.5mb 56f 66f
1:36 9 10 mph 1015.7mb 56f 66f
1:30 9 10 mph 1015.7mb 56f 66f
1:24 10
mph
1015.8mb 56f 66f
1:18 9
mph
1015.7mb 56f 65f
1:12 9 10 mph 1015.8mb 56f 65f
1:06 10
mph
1015.8mb 56f 65f
1:00 9 10 mph 1015.9mb 56f 65f
12:54 10
mph
1015.9mb 56f 64f
12:48 9 11 mph 1016mb 55f 64f
12:36 10
mph
1016.1mb 54f 64f
12:30 9 10 mph 1016.1mb 54f 64f
12:24 9
mph
1016.1mb 54f 64f
12:18 7
mph
1016.2mb 54f 65f
12:12 5 7 mph 1016.2mb 54f 65f
12:06 5 6 mph 1016.2mb 54f 64f
12:00 5 6 mph 1016.2mb 54f 63f
11:54 5 6 mph 1016.3mb 54f 64f
11:48 6
mph
1016.2mb 54f 65f
11:36 5 6 mph 1016.2mb 55f 64f
11:30 3 6 mph 1016.3mb 55f 64f
11:24 3 6 mph 1016.3mb 55f 63f
11:18 3 6 mph 1016.3mb 55f 63f
11:12 3 6 mph 1016.3mb 56f 62f
11:06 5 6 mph 1016.3mb 56f 62f
11:00 3 5 mph 1016.4mb 56f 62f
10:54 3 5 mph 1016.4mb 57f 62f
10:48 3 6 mph 1016.4mb 57f 62f
10:36 5 7 mph 1016.5mb 58f 61f
10:30 5 7 mph 1016.5mb 58f 61f
10:24 7 9 mph 1016.4mb 58f 60f
10:18 6 9 mph 1016.2mb 58f 59f
10:12 6 8 mph 1016.3mb 59f 58f
10:06 6 8 mph 1016.4mb 59f 58f
10:00 6 8 mph 1016.3mb 59f 58f
9:54 7 8 mph 1016.3mb 59f 57f
9:48 7 9 mph 1016.2mb 58f 57f
9:36 6 8 mph 1016.3mb 58f 57f
9:30 3 7 mph 1016.5mb 58f 57f
9:24 6 7 mph 1016.5mb 58f 56f
9:18 5 7 mph 1016.4mb 58f 56f
9:12 6 7 mph 1016.4mb 58f 56f
9:06 6 9 mph 1016.3mb 58f 56f
9:00 8 10 mph 1016.3mb 58f 55f
8:54 9 10 mph 1016.3mb 58f 55f
8:48 8 10 mph 1016.3mb 58f 55f
8:36 7 10 mph 1016.3mb 58f 55f
8:30 9 11 mph 1016.3mb 58f 55f
8:24 10 11 mph 1016.3mb 58f 55f
8:18 11
mph
1016.4mb 58f 54f
8:12 11 13 mph 1016.4mb 58f 54f
8:06 11 13 mph 1016.4mb 58f 54f
8:00 9 11 mph 1016.3mb 58f 54f
7:54 8 11 mph 1016.3mb 58f 54f
7:48 9 10 mph 1016.3mb 58f 54f
7:36 8 9 mph 1016.3mb 58f 54f
7:30 9 10 mph 1016.2mb 58f 54f
7:24 7 9 mph 1016.2mb 57f 54f
7:18 8 9 mph 1016.2mb 58f 54f
7:12 7 8 mph 1016.1mb 58f 54f
7:06 6 7 mph 1016mb 58f 54f
7:00 6 7 mph 1016mb 58f 54f
6:54 7 8 mph 1016mb 58f 55f
6:48 6 7 mph 1016mb 58f 55f
6:36 5 6 mph 1015.9mb 58f 54f
6:30 5
mph
1015.9mb 58f 54f
6:24 5
mph
1015.9mb 58f 54f
6:18 5
mph
1015.8mb 58f 54f
6:12 5
mph
1015.8mb 58f 54f
6:06 5
mph
1015.9mb 58f 54f
6:00 5
mph
1015.9mb 58f 54f
5:54 5
mph
1015.8mb 58f 55f
5:48 5
mph
1015.7mb 58f 55f
5:36 3 5 mph 1015.6mb 59f 54f
5:30 5
mph
1015.6mb 59f 54f
5:24 5
mph
1015.6mb 59f 54f
5:18 3
mph
1015.6mb 59f 54f
5:12 3
mph
1015.6mb 59f 54f
5:06 2 3 mph 1015.6mb 59f 54f
5:00  -  mph 1015.6mb 59f -
4:54 2
mph
1015.7mb 59f 54f
4:48 2
mph
1015.7mb 59f 54f
4:36 2
mph
1015.7mb 59f 55f
4:30 1 2 mph 1015.7mb 58f 55f
4:24  -  1 mph 1015.7mb 58f 54f
4:18  -  mph 1015.8mb 58f 54f
4:12  -  2 mph 1015.8mb 58f 54f
4:06 2
mph
1015.8mb 58f 54f
4:00 2 3 mph 1015.8mb 58f 55f
3:54 2 3 mph 1015.8mb 58f 54f
3:48 1 2 mph 1015.8mb 58f 54f
3:36 1 2 mph 1015.6mb 58f 54f
3:30 2 3 mph 1015.5mb 58f 54f
3:24 3 5 mph 1015.4mb 58f 54f
3:18 3 5 mph 1015.4mb 58f 54f
3:12 3 5 mph 1015.3mb 58f 54f
3:06 5
mph
1015.3mb 58f 54f
3:00 5 6 mph 1015.3mb 58f 54f
2:54 6 7 mph 1015.3mb 58f 54f
2:48 7
mph
1015.3mb 58f 54f
2:36 7
mph
1015.3mb 58f 54f
2:30 7
mph
1015.3mb 58f 55f
2:24 6
mph
1015.2mb 58f 54f
2:18 5
mph
1015.2mb 58f 54f
2:12 5 6 mph 1015.2mb 58f 54f
2:06 6
mph
1015.2mb 58f 55f
2:00 6 7 mph 1015.3mb 58f 55f
1:54 6 7 mph 1015.3mb 58f 55f
1:48 7
mph
1015.3mb 58f 55f
1:36 8 9 mph 1015.3mb 58f 55f
1:30 8 9 mph 1015.3mb 58f 55f
1:24 8 10 mph 1015.2mb 58f 55f
1:18 9 10 mph 1015.3mb 58f 55f
1:12 9 10 mph 1015.3mb 58f 55f
1:06 9
mph
1015.3mb 58f 55f
1:00 8 9 mph 1015.4mb 58f 55f
12:54 8 9 mph 1015.4mb 58f 55f
12:48 8 9 mph 1015.5mb 58f 55f
12:36 9 10 mph 1015.5mb 58f 55f
12:30 8 9 mph 1015.5mb 57f 55f
12:24 8
mph
1015.5mb 57f 55f
12:18 8
mph
1015.5mb 57f 55f
12:12 7
mph
1015.4mb 56f 55f
12:06 6 7 mph 1015.5mb 56f 55f
12:00 6
mph
1015.5mb 56f 55f
Di 08/25 11:54 6 7 mph 1015.5mb 56f 56f
11:48 6 7 mph 1015.6mb 56f 56f
11:36 6 8 mph 1015.6mb 56f 56f
11:30 7 8 mph 1015.6mb 56f 56f
11:24 7 9 mph 1015.6mb 56f 56f
11:18 7 8 mph 1015.7mb 56f 56f
11:12 8 9 mph 1015.8mb 56f 56f
11:06 7 11 mph 1015.8mb 56f 56f
11:00 8 9 mph 1015.9mb 56f 56f
10:54 6 7 mph 1015.9mb 56f 56f
10:48 7 8 mph 1016mb 55f 56f
10:36 8 9 mph 1016mb 55f 56f
10:30 8 10 mph 1015.9mb 55f 56f
10:24 9 11 mph 1015.9mb 55f 56f
10:18 10 11 mph 1015.9mb 55f 56f
10:12 10 14 mph 1015.9mb 55f 56f
10:06 11 14 mph 1015.9mb 55f 56f
10:00 11 15 mph 1016mb 55f 57f
9:54 11 15 mph 1016mb 55f 57f
9:48 13 15 mph 1016mb 55f 57f
9:36 11 14 mph 1016.1mb 56f 57f
9:30 13 14 mph 1016.1mb 56f 57f
9:24 13 15 mph 1016.1mb 56f 57f
9:18 11 14 mph 1016.1mb 56f 57f
9:12 10 14 mph 1016.2mb 56f 57f
9:06 9 11 mph 1016.2mb 56f 57f
9:00 9 10 mph 1016.2mb 57f 57f
8:54 10 11 mph 1016.2mb 57f 57f
8:48 9 13 mph 1016.2mb 57f 57f
8:36 13 15 mph 1016mb 57f 57f
8:30 14 15 mph 1016mb 57f 57f
8:24 14 16 mph 1016mb 57f 57f
8:18 14 15 mph 1015.9mb 57f 57f
8:12 14 16 mph 1016mb 57f 58f
8:06 14 16 mph 1016mb 57f 58f
8:00 13 15 mph 1016mb 57f 58f
7:54 14 15 mph 1016mb 57f 58f
7:48 14 17 mph 1016.1mb 57f 58f
7:36 15 17 mph 1016.1mb 56f 59f
7:30 16 18 mph 1016.1mb 57f 59f
7:24 17 20 mph 1016.1mb 57f 59f
7:18 16 17 mph 1016.2mb 57f 59f
7:12 16 17 mph 1016.2mb 57f 60f
7:06 15 18 mph 1016.3mb 57f 60f
7:00 17 18 mph 1016.3mb 57f 60f
6:54 17 18 mph 1016.3mb 57f 60f
6:48 17 20 mph 1016.3mb 57f 60f
6:36 18 21 mph 1016.2mb 58f 61f
6:30 18 22 mph 1016.1mb 57f 61f
6:24 17 22 mph 1016.3mb 57f 61f
6:18 17 20 mph 1016.3mb 57f 61f
6:12 17 21 mph 1016.4mb 57f 61f
6:06 17 20 mph 1016.4mb 57f 61f
6:00 17 21 mph 1016.3mb 57f 61f
5:54 17 18 mph 1016.4mb 57f 61f
5:48 17 20 mph 1016.3mb 57f 62f
5:36 16 20 mph 1016.5mb 58f 62f
5:30 16 20 mph 1016.5mb 58f 62f
5:24 18 20 mph 1016.6mb 58f 62f
5:18 17 18 mph 1016.6mb 58f 62f
5:12 17 18 mph 1016.6mb 58f 62f
5:06 16 17 mph 1016.6mb 58f 63f
5:00 16 17 mph 1016.7mb 58f 63f
4:54 14 17 mph 1016.7mb 58f 63f
4:48 15 17 mph 1016.7mb 58f 63f
4:36 15 17 mph 1016.8mb 58f 63f
4:30 16 17 mph 1016.8mb 58f 63f
4:24 16 18 mph 1016.9mb 58f 63f
4:18 14 17 mph 1017mb 58f 63f
4:12 15 16 mph 1017mb 58f 63f
4:06 15 16 mph 1017mb 58f 63f
4:00 15 18 mph 1017.1mb 58f 63f
3:54 16 18 mph 1017mb 58f 62f
3:48 16 18 mph 1017mb 58f 62f
3:36 16 18 mph 1017.1mb 58f 60f
3:30 16 18 mph 1017.2mb 58f 60f
3:24 16 18 mph 1017.2mb 58f 60f
3:18 17 20 mph 1017.3mb 58f 60f
3:12 17 18 mph 1017.4mb 58f 61f
3:06 16 17 mph 1017.5mb 58f 61f
3:00 14 15 mph 1017.6mb 58f 60f
2:54 14
mph
1017.6mb 58f 60f
2:48 13 14 mph 1017.7mb 58f 60f
2:36 11 14 mph 1017.8mb 58f 60f
2:30 14
mph
1017.9mb 59f 60f
2:24 11 13 mph 1017.9mb 59f 60f
2:18 11 13 mph 1018mb 59f 60f
2:12 11 13 mph 1018mb 59f 60f
2:06 11 13 mph 1018mb 59f 60f
2:00 10 11 mph 1018.1mb 59f 60f
1:54 11
mph
1018.1mb 59f 60f
1:48 11 13 mph 1018.2mb 59f 59f
1:36 13
mph
1018.2mb 58f 59f
1:30 13 14 mph 1018.2mb 58f 59f
1:24 13 14 mph 1018.3mb 57f 59f
1:18 11 13 mph 1018.3mb 57f 58f
1:12 9 11 mph 1018.3mb 57f 58f
1:06 11 14 mph 1018.3mb 56f 58f
1:00 13 15 mph 1018.3mb 57f 58f
12:54 15
mph
1018.3mb 57f 58f
12:48 11 13 mph 1018.3mb 56f 59f
12:36 14 15 mph 1018.4mb 56f 58f
12:30 14 15 mph 1018.4mb 56f 58f
12:24 15 16 mph 1018.3mb 56f 58f
12:18 9 13 mph 1018.4mb 56f 60f
12:12 5 8 mph 1018.4mb 56f 63f
12:06 5
mph
1018.5mb 56f 65f
12:00 5 6 mph 1018.5mb 56f 65f
11:54 3 5 mph 1018.5mb 56f 68f
11:48 3 7 mph 1018.6mb 55f 67f
11:36 6 7 mph 1018.7mb 55f 66f
11:30 5 8 mph 1018.7mb 55f 66f
11:24 1 6 mph 1018.7mb 55f 66f
11:18 3 7 mph 1018.8mb 55f 65f
11:12 5 8 mph 1018.8mb 54f 64f
11:06 5 8 mph 1018.8mb 55f 64f
11:00 5 8 mph 1018.9mb 55f 63f
10:54 6 8 mph 1018.9mb 55f 62f
10:48 7 9 mph 1018.9mb 55f 62f
10:36 7
mph
1019mb 55f 61f
10:30 5 9 mph 1019mb 56f 61f
10:24 6 8 mph 1019.1mb 56f 60f
10:18 6 8 mph 1019mb 56f 60f
10:12 7 8 mph 1019mb 56f 60f
10:06 6 8 mph 1019.1mb 57f 60f
10:00 3 7 mph 1019.1mb 57f 60f
9:54 5 7 mph 1019.2mb 58f 60f
9:48 6 8 mph 1019.2mb 58f 59f
9:36 6 7 mph 1019.2mb 58f 58f
9:30 5 7 mph 1019.2mb 58f 58f
9:24 5 7 mph 1019.3mb 58f 59f
9:18 5 8 mph 1019.4mb 58f 58f
9:12 6 8 mph 1019.4mb 58f 58f
9:06 5 8 mph 1019.5mb 58f 58f
9:00 7
mph
1019.5mb 58f 57f
8:54 6 7 mph 1019.6mb 58f 57f
8:48 6 7 mph 1019.6mb 58f 56f
8:36 6 7 mph 1019.6mb 58f 55f
8:30 5 9 mph 1019.6mb 58f 55f
8:24 8 9 mph 1019.5mb 58f 54f
8:18 6 8 mph 1019.4mb 58f 55f
8:12 7 8 mph 1019.5mb 58f 54f
8:06 7 8 mph 1019.5mb 58f 54f
8:00 7 8 mph 1019.5mb 58f 54f
7:54 6 8 mph 1019.4mb 58f 54f
7:48 7 8 mph 1019.4mb 58f 54f
7:36 7 8 mph 1019.4mb 58f 53f
7:30 6 8 mph 1019.3mb 58f 53f
7:24 7
mph
1019.3mb 58f 53f
7:18 5 7 mph 1019.2mb 58f 53f
7:12 7 8 mph 1019.2mb 58f 53f
7:06 6 8 mph 1019.1mb 58f 52f
7:00 8 10 mph 1019.1mb 58f 52f
6:54 9 10 mph 1019.1mb 58f 52f
6:48 7 9 mph 1019mb 58f 52f
6:36 7 8 mph 1018.9mb 58f 52f
6:30 6 7 mph 1018.9mb 58f 52f
6:24 6 7 mph 1018.8mb 58f 53f
6:18 5 6 mph 1018.8mb 58f 53f
6:12 6 7 mph 1018.7mb 58f 53f
6:06 6
mph
1018.7mb 58f 53f
6:00 3
mph
1018.6mb 58f 53f
5:54  -  1 mph 1018.6mb 58f 54f
5:48  -  1 mph 1018.6mb 58f 53f
5:36  -  mph 1018.7mb 58f 54f
5:30  -  mph 1018.6mb 58f 54f
5:24  -  mph 1018.6mb 58f 54f
5:18  -  2 mph 1018.6mb 58f 54f
5:12 2
mph
1018.5mb 58f 54f
5:06 1
mph
1018.6mb 58f 54f
5:00 1 2 mph 1018.5mb 58f 54f
4:54 2 3 mph 1018.5mb 58f 54f
4:48 3
mph
1018.6mb 58f 54f
4:36 2 3 mph 1018.5mb 58f 53f
4:30  -  mph 1018.6mb 59f -
4:24 2
mph
1018.7mb 59f 55f
4:18 2
mph
1018.6mb 59f 55f
4:12 1 2 mph 1018.5mb 59f 55f
4:06 2 3 mph 1018.5mb 59f 55f
4:00 3
mph
1018.5mb 59f 55f
3:54 3 5 mph 1018.5mb 59f 55f
3:48 5
mph
1018.5mb 59f 55f
3:36 3 5 mph 1018.6mb 59f 55f
3:30 3 5 mph 1018.6mb 59f 55f
3:24 3 6 mph 1018.6mb 59f 55f
3:18 3 6 mph 1018.6mb 58f 55f
3:12 5 7 mph 1018.5mb 58f 54f
3:06 5 6 mph 1018.5mb 58f 55f
3:00 3 5 mph 1018.4mb 58f 54f
2:54 3 5 mph 1018.4mb 58f 54f
2:48 2 5 mph 1018.5mb 58f 54f
2:36 2 5 mph 1018.5mb 58f 55f
2:30 3
mph
1018.5mb 58f 55f
2:24 3 5 mph 1018.6mb 58f 55f
2:18 3 5 mph 1018.7mb 58f 55f
2:12 5 6 mph 1018.7mb 58f 55f
2:06 5 6 mph 1018.7mb 58f 55f
2:00 3 6 mph 1018.7mb 58f 55f
1:54 5 6 mph 1018.7mb 58f 55f
1:48 6
mph
1018.7mb 58f 55f
1:36 6 7 mph 1018.7mb 58f 55f
1:30 6 7 mph 1018.7mb 58f 55f
1:24 6 7 mph 1018.7mb 59f 56f
1:18 6 8 mph 1018.7mb 59f 56f
1:12 6 8 mph 1018.7mb 59f 56f
1:06 6 7 mph 1018.7mb 59f 55f
1:00 7 8 mph 1018.8mb 59f 56f
12:54 7 8 mph 1018.8mb 59f 56f
12:48 7 8 mph 1018.7mb 59f 55f
12:36 6 7 mph 1018.7mb 59f 55f
12:30 6 7 mph 1018.6mb 59f 55f
12:24 6 7 mph 1018.6mb 59f 55f
12:18  -  mph 1018.7mb 59f -
12:12 7 8 mph 1018.7mb 59f 55f
12:06 7 9 mph 1018.7mb 58f 55f
12:00 7 9 mph 1018.7mb 58f 55f
Mo 08/24 11:54  -  mph 1018.7mb 58f -
11:48 6 7 mph 1018.8mb 58f 55f
11:36 7 8 mph 1018.8mb 58f 56f
11:30 8 9 mph 1018.7mb 57f 56f
11:24 9 10 mph 1018.7mb 57f 56f
11:18 10
mph
1018.8mb 57f 56f
11:12 10 11 mph 1018.8mb 56f 56f
11:06 10 11 mph 1018.8mb 56f 56f
11:00 9 10 mph 1018.7mb 56f 56f
10:54 9 10 mph 1018.7mb 56f 56f
10:48 9 10 mph 1018.7mb 55f 56f
10:36 9 10 mph 1018.7mb 55f 56f
10:30 8 10 mph 1018.7mb 55f 56f
10:24 8 9 mph 1018.7mb 54f 56f
10:18 8 10 mph 1018.7mb 53f 56f
10:12 9 10 mph 1018.7mb 53f 56f
10:06 9 10 mph 1018.7mb 53f 56f
10:00 8 9 mph 1018.7mb 53f 56f
9:54 8 9 mph 1018.8mb 53f 56f
9:48 8 9 mph 1018.7mb 53f 56f
9:36 6 7 mph 1018.8mb 53f 56f
9:30 6 7 mph 1018.8mb 53f 56f
9:24 6
mph
1018.9mb 53f 56f
9:18 6 7 mph 1018.8mb 53f 56f
9:12 6 7 mph 1018.8mb 53f 56f
9:06 6 7 mph 1018.9mb 53f 56f
9:00 5 7 mph 1018.8mb 53f 56f
8:54 5 6 mph 1018.8mb 53f 56f
8:48 3 5 mph 1018.8mb 53f 56f
8:36 3 6 mph 1018.7mb 53f 57f
8:30 5 6 mph 1018.7mb 54f 57f
8:24 6 7 mph 1018.8mb 54f 57f
8:18 6 8 mph 1018.8mb 54f 57f
8:12 6 8 mph 1018.7mb 54f 57f
8:06 7
mph
1018.7mb 54f 57f
8:00 6 8 mph 1018.7mb 54f 57f
7:54 7 9 mph 1018.7mb 54f 57f
7:48 7 9 mph 1018.7mb 54f 58f
7:36 8 9 mph 1018.7mb 55f 59f
7:30 7 9 mph 1018.6mb 55f 59f
7:24 8 11 mph 1018.6mb 55f 61f
7:18 10 13 mph 1018.6mb 55f 61f
7:12 10 11 mph 1018.7mb 55f 60f
7:06 11 13 mph 1018.7mb 55f 60f
7:00 10 13 mph 1018.7mb 55f 59f
6:54 10 13 mph 1018.6mb 56f 60f
6:48 10 11 mph 1018.6mb 56f 60f
6:36 11 15 mph 1018.5mb 56f 61f
6:30 14 15 mph 1018.5mb 56f 61f
6:24 14 16 mph 1018.5mb 56f 60f
6:18 14 16 mph 1018.4mb 56f 60f
6:12 14 15 mph 1018.5mb 56f 60f
6:06 14 15 mph 1018.5mb 57f 60f
6:00 14 15 mph 1018.5mb 57f 61f
5:54 14 16 mph 1018.6mb 57f 61f
5:48 14 17 mph 1018.5mb 58f 62f
5:36 14 16 mph 1018.5mb 58f 59f
5:30 14 16 mph 1018.4mb 58f 59f
5:24 14 16 mph 1018.5mb 58f 59f
5:18 14 15 mph 1018.6mb 58f 59f
5:12 14 16 mph 1018.7mb 58f 59f
5:06 15 16 mph 1018.6mb 58f 59f
5:00 15 16 mph 1018.6mb 58f 59f
4:54 15 16 mph 1018.6mb 58f 59f
4:48 15 16 mph 1018.6mb 58f 59f
4:36 14 15 mph 1018.6mb 58f 59f
4:30 15 16 mph 1018.6mb 58f 59f
4:24 14 15 mph 1018.6mb 58f 59f
4:18 13 14 mph 1018.6mb 58f 59f
4:12 14 15 mph 1018.7mb 58f 59f
4:06 13 14 mph 1018.8mb 58f 59f
4:00 11 13 mph - - 59f
3:54 11 14 mph 1018.9mb 58f 59f
3:48 13 15 mph 1018.9mb 58f 59f
3:36 11 14 mph 1018.9mb 59f 60f
3:30 11 15 mph 1018.9mb 59f 60f
3:24 11 14 mph 1018.9mb 59f 60f
3:18 13 15 mph 1018.8mb 59f 60f
3:12 11 15 mph 1018.8mb 59f 60f
3:06 10 14 mph 1018.9mb 59f 60f
3:00 11 14 mph 1018.9mb 59f 60f
2:54 11 14 mph 1018.9mb 59f 60f
2:48 13 15 mph 1019mb 59f 60f
2:36 11 14 mph 1019mb 59f 60f
2:30 13 15 mph 1019mb 59f 60f
2:24 13 15 mph 1019mb 59f 60f
2:18 13 17 mph 1019mb 59f 59f
2:12 11 14 mph 1019mb 59f 59f
2:06 11 13 mph 1018.9mb 59f 59f
2:00 11 14 mph 1018.9mb 59f 59f
1:54 9 11 mph 1019mb 59f 58f
1:48 9 11 mph 1019mb 59f 58f
1:36 8 11 mph 1019.1mb 60f 58f
1:30 9 11 mph 1019.1mb 60f 58f
1:24 9 11 mph 1018.9mb 60f 58f
1:18 10 13 mph 1019mb 60f 58f
1:12 10 13 mph 1018.9mb 60f 58f
1:06 10 11 mph 1019mb 60f 58f
1:00 10 13 mph 1018.9mb 60f 58f
12:54 13 14 mph 1018.9mb 59f 59f
12:48 13 14 mph 1018.9mb 59f 59f
12:36 14 15 mph 1018.9mb 58f 59f
12:30 15 18 mph 1018.9mb 58f 59f
12:24 14 15 mph 1018.7mb 57f 59f
12:18 14 15 mph 1018.8mb 57f 59f
12:12 14 16 mph 1018.8mb 57f 59f
12:06 14 16 mph 1018.9mb 57f 59f
12:00 14 15 mph 1018.9mb 57f 58f
11:54 14 15 mph 1019mb 57f 58f
11:48 15 16 mph 1019mb 57f 59f
11:36 13 14 mph 1018.9mb 57f 59f
11:30 13 15 mph 1018.8mb 57f 59f
11:24 14 15 mph 1018.8mb 57f 59f
11:18 14
mph
1018.8mb 57f 59f
11:12 13
mph
1018.7mb 56f 58f
11:06 13 14 mph 1018.8mb 56f 58f
11:00 13 14 mph 1018.7mb 56f 58f
10:54 13 14 mph 1018.8mb 55f 58f
10:48 14
mph
1018.8mb 56f 58f
10:36 13
mph
1018.8mb 55f 58f
10:30 13
mph
1018.8mb 55f 58f
10:24 10 11 mph 1018.7mb 55f 58f
10:18 8 9 mph 1018.7mb 55f 57f
10:12 7 10 mph 1018.6mb 55f 56f
10:06 8 10 mph 1018.6mb 55f 57f
10:00 8 10 mph 1018.6mb 55f 58f
9:54 8 10 mph 1018.6mb 55f 58f
9:48 6 8 mph 1018.6mb 55f 57f
9:36 6 8 mph 1018.6mb 56f 57f
9:30 6 8 mph 1018.6mb 56f 57f
9:24 6 7 mph 1018.6mb 56f 57f
9:18 6 7 mph 1018.6mb 56f 56f
9:12 5 7 mph 1018.5mb 56f 56f
9:06 6 7 mph 1018.5mb 57f 57f
9:00 5 7 mph 1018.5mb 58f 56f
8:54 6 7 mph 1018.5mb 58f 56f
8:48 6 7 mph 1018.4mb 58f 56f
8:36 5 6 mph 1018.4mb 58f 56f
8:30 3 6 mph 1018.3mb 59f 56f
8:24 3 5 mph 1018.3mb 59f 55f
8:18 3 5 mph 1018.3mb 59f 55f
8:12 3 5 mph 1018.3mb 59f 55f
8:06 3 5 mph 1018.2mb 59f 55f
8:00 3 5 mph 1018.3mb 59f 55f
7:54 3 5 mph 1018.3mb 59f 55f
7:48 3 5 mph 1018.2mb 59f 55f
7:36 3 5 mph 1018.1mb 59f 54f
7:30 3 6 mph 1018.1mb 59f 55f
7:24 5 6 mph 1018.1mb 59f 54f
7:18 5 6 mph 1018.1mb 59f 54f
7:12 5 6 mph 1018mb 60f 54f
7:06 5 6 mph 1017.9mb 60f 54f
7:00 5 6 mph 1017.9mb 60f 54f
6:54 5
mph
1017.8mb 60f 54f
6:48 3 5 mph 1017.8mb 60f 54f
6:36 3 5 mph 1017.7mb 60f 54f
6:30 3 5 mph 1017.7mb 60f 54f
6:24 3 5 mph 1017.7mb 60f 53f
6:18 3 6 mph 1017.7mb 60f 54f
6:12 6
mph
1017.6mb 60f 54f
6:06 3 6 mph 1017.7mb 60f 54f
6:00 5 6 mph 1017.7mb 60f 54f
5:54 5 6 mph 1017.7mb 60f 54f
5:48 6 7 mph 1017.7mb 60f 53f
5:36 6 7 mph 1017.6mb 60f 54f
5:30 7 8 mph 1017.6mb 60f 54f
5:24 6 7 mph 1017.6mb 60f 54f
5:18 6 7 mph 1017.6mb 60f 54f
5:12 6 8 mph 1017.6mb 60f 54f
5:06 5 7 mph 1017.6mb 60f 54f
5:00 6 9 mph 1017.6mb 60f 54f
4:54 6 8 mph 1017.6mb 60f 54f
4:48 6 7 mph 1017.5mb 60f 54f
4:36 6 9 mph 1017.5mb 60f 54f
4:30 6 9 mph 1017.5mb 60f 54f
4:24 6 9 mph 1017.5mb 60f 55f
4:18 6 9 mph 1017.4mb 60f 55f
4:12 7 10 mph 1017.4mb 60f 55f
4:06 9 11 mph 1017.4mb 60f 55f
4:00 9 11 mph 1017.4mb 60f 55f
3:54 10 13 mph 1017.4mb 60f 55f
3:48 10 14 mph 1017.3mb 60f 55f
3:36 9 11 mph 1017.4mb 61f 55f
3:30 9 13 mph 1017.4mb 61f 55f
3:24 9 13 mph 1017.3mb 61f 55f
3:18 9 11 mph 1017.3mb 61f 55f
3:12 9 11 mph 1017.3mb 61f 55f
3:06 9 11 mph 1017.3mb 61f 55f
3:00 10 13 mph 1017.3mb 61f 55f
2:54 9 11 mph 1017.3mb 61f 55f
2:48 9 11 mph 1017.3mb 61f 55f
2:36 9 11 mph 1017.3mb 61f 55f
2:30 9 11 mph 1017.2mb 61f 55f
2:24 8 11 mph 1017.2mb 61f 55f
2:18 8 10 mph 1017.2mb 61f 55f
2:12 8 11 mph 1017.2mb 61f 55f
2:06 9 13 mph 1017.2mb 61f 55f
2:00 10 13 mph 1017.2mb 61f 55f
1:54 11 14 mph 1017.2mb 60f 55f
1:48 13 15 mph 1017.1mb 60f 55f
1:36 13 15 mph 1017.3mb 60f 55f
1:30 13 14 mph 1017.3mb 60f 55f
1:24 13 14 mph 1017.3mb 60f 55f
1:18 11 15 mph 1017.3mb 60f 55f
1:12 11 15 mph 1017.3mb 60f 55f
1:06 11 15 mph 1017.3mb 60f 55f
1:00 11 14 mph 1017.3mb 60f 55f
12:54 11 14 mph 1017.3mb 60f 55f
12:48 10 15 mph 1017.2mb 60f 55f
12:36 10 13 mph 1017.2mb 60f 55f
12:30 11 15 mph 1017.2mb 60f 55f
12:24 13 15 mph 1017.2mb 60f 55f
12:18 13 15 mph 1017.1mb 60f 55f
12:12 13 16 mph 1017.1mb 61f 55f
12:06 11 15 mph 1017.1mb 61f 55f
12:00 11 15 mph 1017.1mb 61f 55f
So 08/23 11:54 11 17 mph 1017.1mb 61f 55f
11:48 13 16 mph 1017.1mb 61f 55f
11:36 14 16 mph 1017.1mb 61f 55f
11:30 14 15 mph 1017mb 60f 55f
11:24 13 17 mph 1017mb 60f 55f
11:18 13 15 mph 1017mb 60f 55f
11:12 11 15 mph 1017mb 60f 55f
11:06 11 13 mph 1017mb 60f 55f
11:00 11 15 mph 1017mb 60f 55f
10:54 13 17 mph 1017mb 60f 56f
10:48 13 16 mph 1017mb 60f 56f
10:36 15 20 mph 1016.9mb 59f 56f
10:30 16 21 mph 1016.9mb 59f 56f
10:24 18 22 mph 1016.9mb 59f 56f
10:18 18 23 mph 1016.8mb 59f 56f
10:12 20 24 mph 1016.8mb 59f 56f